sensor_id;sensor_type;location;lat;lon;timestamp;P1;durP1;ratioP1;P2;durP2;ratioP2
6053;SDS011;3055;50.886;14.814;2024-01-15T00:00:19;14.53;;;10.50;;
6053;SDS011;3055;50.886;14.814;2024-01-15T00:02:46;15.10;;;9.80;;
6053;SDS011;3055;50.886;14.814;2024-01-15T00:05:13;15.60;;;10.40;;
6053;SDS011;3055;50.886;14.814;2024-01-15T00:07:40;15.00;;;10.20;;
6053;SDS011;3055;50.886;14.814;2024-01-15T00:10:08;16.20;;;10.10;;
6053;SDS011;3055;50.886;14.814;2024-01-15T00:12:35;16.97;;;11.17;;
6053;SDS011;3055;50.886;14.814;2024-01-15T00:15:04;16.87;;;10.70;;
6053;SDS011;3055;50.886;14.814;2024-01-15T00:17:31;14.37;;;10.57;;
6053;SDS011;3055;50.886;14.814;2024-01-15T00:19:58;16.50;;;11.00;;
6053;SDS011;3055;50.886;14.814;2024-01-15T00:22:25;14.30;;;11.03;;
6053;SDS011;3055;50.886;14.814;2024-01-15T00:24:53;18.67;;;10.70;;
6053;SDS011;3055;50.886;14.814;2024-01-15T00:27:20;12.37;;;10.10;;
6053;SDS011;3055;50.886;14.814;2024-01-15T00:29:47;13.37;;;11.00;;
6053;SDS011;3055;50.886;14.814;2024-01-15T00:32:17;13.83;;;10.60;;
6053;SDS011;3055;50.886;14.814;2024-01-15T00:34:45;15.87;;;10.40;;
6053;SDS011;3055;50.886;14.814;2024-01-15T00:37:12;15.57;;;10.03;;
6053;SDS011;3055;50.886;14.814;2024-01-15T00:39:39;17.40;;;10.80;;
6053;SDS011;3055;50.886;14.814;2024-01-15T00:42:06;16.07;;;11.00;;
6053;SDS011;3055;50.886;14.814;2024-01-15T00:44:33;16.67;;;10.73;;
6053;SDS011;3055;50.886;14.814;2024-01-15T00:47:00;18.50;;;10.20;;
6053;SDS011;3055;50.886;14.814;2024-01-15T00:49:29;15.30;;;10.40;;
6053;SDS011;3055;50.886;14.814;2024-01-15T00:51:55;11.37;;;9.40;;
6053;SDS011;3055;50.886;14.814;2024-01-15T00:54:22;14.80;;;10.03;;
6053;SDS011;3055;50.886;14.814;2024-01-15T00:56:49;13.00;;;10.57;;
6053;SDS011;3055;50.886;14.814;2024-01-15T00:59:16;13.83;;;10.13;;
6053;SDS011;3055;50.886;14.814;2024-01-15T01:01:43;13.73;;;10.17;;
6053;SDS011;3055;50.886;14.814;2024-01-15T01:04:11;13.57;;;10.13;;
6053;SDS011;3055;50.886;14.814;2024-01-15T01:06:39;13.93;;;9.93;;
6053;SDS011;3055;50.886;14.814;2024-01-15T01:09:06;16.23;;;10.43;;
6053;SDS011;3055;50.886;14.814;2024-01-15T01:11:33;16.03;;;9.47;;
6053;SDS011;3055;50.886;14.814;2024-01-15T01:14:00;15.60;;;10.40;;
6053;SDS011;3055;50.886;14.814;2024-01-15T01:16:28;13.07;;;9.77;;
6053;SDS011;3055;50.886;14.814;2024-01-15T01:18:56;16.73;;;11.00;;
6053;SDS011;3055;50.886;14.814;2024-01-15T01:21:23;14.87;;;10.70;;
6053;SDS011;3055;50.886;14.814;2024-01-15T01:23:52;15.70;;;11.47;;
6053;SDS011;3055;50.886;14.814;2024-01-15T01:26:19;16.07;;;11.07;;
6053;SDS011;3055;50.886;14.814;2024-01-15T01:28:46;12.23;;;9.43;;
6053;SDS011;3055;50.886;14.814;2024-01-15T01:31:13;15.67;;;10.43;;
6053;SDS011;3055;50.886;14.814;2024-01-15T01:33:41;14.63;;;10.40;;
6053;SDS011;3055;50.886;14.814;2024-01-15T01:36:09;17.80;;;11.57;;
6053;SDS011;3055;50.886;14.814;2024-01-15T01:38:37;13.40;;;9.83;;
6053;SDS011;3055;50.886;14.814;2024-01-15T01:41:07;14.13;;;10.50;;
6053;SDS011;3055;50.886;14.814;2024-01-15T01:43:34;14.67;;;10.20;;
6053;SDS011;3055;50.886;14.814;2024-01-15T01:46:01;14.73;;;10.40;;
6053;SDS011;3055;50.886;14.814;2024-01-15T01:48:29;15.80;;;10.17;;
6053;SDS011;3055;50.886;14.814;2024-01-15T01:50:58;15.13;;;10.43;;
6053;SDS011;3055;50.886;14.814;2024-01-15T01:53:27;18.10;;;10.27;;
6053;SDS011;3055;50.886;14.814;2024-01-15T01:55:55;12.90;;;9.23;;
6053;SDS011;3055;50.886;14.814;2024-01-15T01:58:25;13.80;;;9.53;;
6053;SDS011;3055;50.886;14.814;2024-01-15T02:00:53;15.67;;;9.80;;
6053;SDS011;3055;50.886;14.814;2024-01-15T02:03:20;16.77;;;10.97;;
6053;SDS011;3055;50.886;14.814;2024-01-15T02:05:47;15.27;;;10.83;;
6053;SDS011;3055;50.886;14.814;2024-01-15T02:08:15;12.73;;;9.17;;
6053;SDS011;3055;50.886;14.814;2024-01-15T02:10:42;13.47;;;9.07;;
6053;SDS011;3055;50.886;14.814;2024-01-15T02:13:09;11.60;;;8.73;;
6053;SDS011;3055;50.886;14.814;2024-01-15T02:15:38;10.50;;;8.47;;
6053;SDS011;3055;50.886;14.814;2024-01-15T02:18:06;13.43;;;8.57;;
6053;SDS011;3055;50.886;14.814;2024-01-15T02:20:33;15.07;;;10.00;;
6053;SDS011;3055;50.886;14.814;2024-01-15T02:23:05;12.83;;;9.50;;
6053;SDS011;3055;50.886;14.814;2024-01-15T02:25:35;12.77;;;8.83;;
6053;SDS011;3055;50.886;14.814;2024-01-15T02:28:04;14.57;;;8.53;;
6053;SDS011;3055;50.886;14.814;2024-01-15T02:30:32;12.50;;;8.23;;
6053;SDS011;3055;50.886;14.814;2024-01-15T02:33:03;12.30;;;8.47;;
6053;SDS011;3055;50.886;14.814;2024-01-15T02:35:30;12.37;;;7.67;;
6053;SDS011;3055;50.886;14.814;2024-01-15T02:37:58;13.93;;;8.97;;
6053;SDS011;3055;50.886;14.814;2024-01-15T02:40:26;13.63;;;8.60;;
6053;SDS011;3055;50.886;14.814;2024-01-15T02:42:53;13.03;;;9.07;;
6053;SDS011;3055;50.886;14.814;2024-01-15T02:45:20;13.57;;;9.40;;
6053;SDS011;3055;50.886;14.814;2024-01-15T02:47:48;12.07;;;7.97;;
6053;SDS011;3055;50.886;14.814;2024-01-15T02:50:15;16.33;;;9.53;;
6053;SDS011;3055;50.886;14.814;2024-01-15T02:52:42;14.67;;;8.83;;
6053;SDS011;3055;50.886;14.814;2024-01-15T02:55:09;11.57;;;8.40;;
6053;SDS011;3055;50.886;14.814;2024-01-15T02:57:38;12.37;;;7.87;;
6053;SDS011;3055;50.886;14.814;2024-01-15T03:00:05;13.13;;;8.37;;
6053;SDS011;3055;50.886;14.814;2024-01-15T03:02:37;13.93;;;8.67;;
6053;SDS011;3055;50.886;14.814;2024-01-15T03:05:05;11.63;;;8.27;;
6053;SDS011;3055;50.886;14.814;2024-01-15T03:07:32;13.93;;;8.20;;
6053;SDS011;3055;50.886;14.814;2024-01-15T03:10:00;12.90;;;8.03;;
6053;SDS011;3055;50.886;14.814;2024-01-15T03:12:27;12.63;;;8.33;;
6053;SDS011;3055;50.886;14.814;2024-01-15T03:14:55;11.67;;;8.00;;
6053;SDS011;3055;50.886;14.814;2024-01-15T03:17:22;11.73;;;7.70;;
6053;SDS011;3055;50.886;14.814;2024-01-15T03:19:49;11.47;;;7.87;;
6053;SDS011;3055;50.886;14.814;2024-01-15T03:22:17;11.17;;;7.57;;
6053;SDS011;3055;50.886;14.814;2024-01-15T03:24:44;10.40;;;7.87;;
6053;SDS011;3055;50.886;14.814;2024-01-15T03:27:11;12.60;;;7.60;;
6053;SDS011;3055;50.886;14.814;2024-01-15T03:29:39;12.77;;;8.30;;
6053;SDS011;3055;50.886;14.814;2024-01-15T03:32:07;9.93;;;7.80;;
6053;SDS011;3055;50.886;14.814;2024-01-15T03:34:34;13.13;;;8.80;;
6053;SDS011;3055;50.886;14.814;2024-01-15T03:37:01;10.63;;;7.17;;
6053;SDS011;3055;50.886;14.814;2024-01-15T03:39:28;11.47;;;8.03;;
6053;SDS011;3055;50.886;14.814;2024-01-15T03:41:55;11.77;;;7.63;;
6053;SDS011;3055;50.886;14.814;2024-01-15T03:44:23;11.00;;;7.63;;
6053;SDS011;3055;50.886;14.814;2024-01-15T03:46:50;10.60;;;7.63;;
6053;SDS011;3055;50.886;14.814;2024-01-15T03:49:18;9.43;;;7.50;;
6053;SDS011;3055;50.886;14.814;2024-01-15T03:51:45;7.87;;;7.07;;
6053;SDS011;3055;50.886;14.814;2024-01-15T03:54:12;11.83;;;8.23;;
6053;SDS011;3055;50.886;14.814;2024-01-15T03:56:40;11.53;;;8.10;;
6053;SDS011;3055;50.886;14.814;2024-01-15T03:59:07;10.97;;;7.67;;
6053;SDS011;3055;50.886;14.814;2024-01-15T04:01:34;11.23;;;7.37;;
6053;SDS011;3055;50.886;14.814;2024-01-15T04:04:01;11.17;;;7.83;;
6053;SDS011;3055;50.886;14.814;2024-01-15T04:06:29;13.03;;;7.97;;
6053;SDS011;3055;50.886;14.814;2024-01-15T04:08:56;12.67;;;8.57;;
6053;SDS011;3055;50.886;14.814;2024-01-15T04:11:23;9.70;;;7.77;;
6053;SDS011;3055;50.886;14.814;2024-01-15T04:13:50;11.17;;;7.77;;
6053;SDS011;3055;50.886;14.814;2024-01-15T04:16:17;11.97;;;8.07;;
6053;SDS011;3055;50.886;14.814;2024-01-15T04:18:45;10.90;;;6.47;;
6053;SDS011;3055;50.886;14.814;2024-01-15T04:21:12;10.20;;;7.80;;
6053;SDS011;3055;50.886;14.814;2024-01-15T04:23:40;9.53;;;7.67;;
6053;SDS011;3055;50.886;14.814;2024-01-15T04:26:07;10.13;;;7.30;;
6053;SDS011;3055;50.886;14.814;2024-01-15T04:28:34;9.50;;;6.97;;
6053;SDS011;3055;50.886;14.814;2024-01-15T04:31:01;10.57;;;7.17;;
6053;SDS011;3055;50.886;14.814;2024-01-15T04:33:29;11.57;;;7.80;;
6053;SDS011;3055;50.886;14.814;2024-01-15T04:35:55;10.40;;;6.80;;
6053;SDS011;3055;50.886;14.814;2024-01-15T04:38:23;9.77;;;7.13;;
6053;SDS011;3055;50.886;14.814;2024-01-15T04:40:51;10.30;;;7.40;;
6053;SDS011;3055;50.886;14.814;2024-01-15T04:43:18;9.13;;;7.07;;
6053;SDS011;3055;50.886;14.814;2024-01-15T04:45:45;8.07;;;6.90;;
6053;SDS011;3055;50.886;14.814;2024-01-15T04:48:12;9.27;;;6.70;;
6053;SDS011;3055;50.886;14.814;2024-01-15T04:50:39;8.03;;;6.83;;
6053;SDS011;3055;50.886;14.814;2024-01-15T04:53:06;8.33;;;6.33;;
6053;SDS011;3055;50.886;14.814;2024-01-15T04:55:33;8.57;;;6.50;;
6053;SDS011;3055;50.886;14.814;2024-01-15T04:58:01;10.50;;;6.57;;
6053;SDS011;3055;50.886;14.814;2024-01-15T05:00:28;9.57;;;6.63;;
6053;SDS011;3055;50.886;14.814;2024-01-15T05:02:55;12.43;;;7.43;;
6053;SDS011;3055;50.886;14.814;2024-01-15T05:05:22;8.60;;;6.30;;
6053;SDS011;3055;50.886;14.814;2024-01-15T05:07:50;9.27;;;6.57;;
6053;SDS011;3055;50.886;14.814;2024-01-15T05:10:17;8.23;;;6.43;;
6053;SDS011;3055;50.886;14.814;2024-01-15T05:12:44;11.07;;;7.27;;
6053;SDS011;3055;50.886;14.814;2024-01-15T05:15:12;9.23;;;6.83;;
6053;SDS011;3055;50.886;14.814;2024-01-15T05:17:39;7.77;;;6.63;;
6053;SDS011;3055;50.886;14.814;2024-01-15T05:20:06;10.13;;;6.53;;
6053;SDS011;3055;50.886;14.814;2024-01-15T05:22:34;10.23;;;6.93;;
6053;SDS011;3055;50.886;14.814;2024-01-15T05:25:01;8.43;;;6.60;;
6053;SDS011;3055;50.886;14.814;2024-01-15T05:27:28;6.73;;;5.90;;
6053;SDS011;3055;50.886;14.814;2024-01-15T05:29:55;7.93;;;6.07;;
6053;SDS011;3055;50.886;14.814;2024-01-15T05:32:23;8.80;;;5.90;;
6053;SDS011;3055;50.886;14.814;2024-01-15T05:34:50;8.30;;;6.00;;
6053;SDS011;3055;50.886;14.814;2024-01-15T05:37:17;8.03;;;5.87;;
6053;SDS011;3055;50.886;14.814;2024-01-15T05:39:44;9.23;;;5.73;;
6053;SDS011;3055;50.886;14.814;2024-01-15T05:42:11;7.57;;;5.80;;
6053;SDS011;3055;50.886;14.814;2024-01-15T05:44:39;8.13;;;6.30;;
6053;SDS011;3055;50.886;14.814;2024-01-15T05:47:06;6.77;;;6.00;;
6053;SDS011;3055;50.886;14.814;2024-01-15T05:49:35;8.23;;;5.80;;
6053;SDS011;3055;50.886;14.814;2024-01-15T05:52:02;7.93;;;5.93;;
6053;SDS011;3055;50.886;14.814;2024-01-15T05:54:29;6.57;;;5.30;;
6053;SDS011;3055;50.886;14.814;2024-01-15T05:56:57;7.50;;;5.57;;
6053;SDS011;3055;50.886;14.814;2024-01-15T05:59:24;7.80;;;5.73;;
6053;SDS011;3055;50.886;14.814;2024-01-15T06:01:51;7.63;;;6.13;;
6053;SDS011;3055;50.886;14.814;2024-01-15T06:04:18;9.87;;;6.40;;
6053;SDS011;3055;50.886;14.814;2024-01-15T06:06:46;9.37;;;6.47;;
6053;SDS011;3055;50.886;14.814;2024-01-15T06:09:13;8.87;;;6.10;;
6053;SDS011;3055;50.886;14.814;2024-01-15T06:11:40;7.07;;;5.80;;
6053;SDS011;3055;50.886;14.814;2024-01-15T06:14:07;6.43;;;5.37;;
6053;SDS011;3055;50.886;14.814;2024-01-15T06:16:34;6.23;;;5.30;;
6053;SDS011;3055;50.886;14.814;2024-01-15T06:19:02;6.77;;;5.07;;
6053;SDS011;3055;50.886;14.814;2024-01-15T06:21:29;8.80;;;5.97;;
6053;SDS011;3055;50.886;14.814;2024-01-15T06:23:57;5.80;;;4.70;;
6053;SDS011;3055;50.886;14.814;2024-01-15T06:26:24;8.53;;;6.50;;
6053;SDS011;3055;50.886;14.814;2024-01-15T06:28:51;6.90;;;5.00;;
6053;SDS011;3055;50.886;14.814;2024-01-15T06:31:18;6.50;;;5.90;;
6053;SDS011;3055;50.886;14.814;2024-01-15T06:33:45;7.10;;;5.30;;
6053;SDS011;3055;50.886;14.814;2024-01-15T06:36:13;7.40;;;4.57;;
6053;SDS011;3055;50.886;14.814;2024-01-15T06:38:41;7.03;;;4.90;;
6053;SDS011;3055;50.886;14.814;2024-01-15T06:41:10;7.10;;;4.87;;
6053;SDS011;3055;50.886;14.814;2024-01-15T06:43:37;8.60;;;5.40;;
6053;SDS011;3055;50.886;14.814;2024-01-15T06:46:04;7.50;;;5.73;;
6053;SDS011;3055;50.886;14.814;2024-01-15T06:48:32;5.60;;;4.63;;
6053;SDS011;3055;50.886;14.814;2024-01-15T06:50:59;6.40;;;5.13;;
6053;SDS011;3055;50.886;14.814;2024-01-15T06:53:26;6.23;;;5.03;;
6053;SDS011;3055;50.886;14.814;2024-01-15T06:55:53;7.87;;;5.47;;
6053;SDS011;3055;50.886;14.814;2024-01-15T06:58:21;7.33;;;5.60;;
6053;SDS011;3055;50.886;14.814;2024-01-15T07:00:48;7.10;;;4.73;;
6053;SDS011;3055;50.886;14.814;2024-01-15T07:03:15;6.40;;;4.60;;
6053;SDS011;3055;50.886;14.814;2024-01-15T07:05:42;5.53;;;4.40;;
6053;SDS011;3055;50.886;14.814;2024-01-15T07:08:09;5.80;;;4.53;;
6053;SDS011;3055;50.886;14.814;2024-01-15T07:10:36;5.90;;;4.73;;
6053;SDS011;3055;50.886;14.814;2024-01-15T07:13:03;5.87;;;5.00;;
6053;SDS011;3055;50.886;14.814;2024-01-15T07:15:32;5.70;;;5.13;;
6053;SDS011;3055;50.886;14.814;2024-01-15T07:17:59;8.03;;;6.20;;
6053;SDS011;3055;50.886;14.814;2024-01-15T07:20:26;7.00;;;5.20;;
6053;SDS011;3055;50.886;14.814;2024-01-15T07:22:53;11.17;;;6.87;;
6053;SDS011;3055;50.886;14.814;2024-01-15T07:25:20;12.90;;;8.97;;
6053;SDS011;3055;50.886;14.814;2024-01-15T07:27:48;13.70;;;9.47;;
6053;SDS011;3055;50.886;14.814;2024-01-15T07:30:15;14.00;;;8.97;;
6053;SDS011;3055;50.886;14.814;2024-01-15T07:32:43;18.43;;;10.67;;
6053;SDS011;3055;50.886;14.814;2024-01-15T07:35:10;15.20;;;10.03;;
6053;SDS011;3055;50.886;14.814;2024-01-15T07:37:37;15.70;;;9.57;;
6053;SDS011;3055;50.886;14.814;2024-01-15T07:40:05;18.07;;;11.33;;
6053;SDS011;3055;50.886;14.814;2024-01-15T07:42:33;15.80;;;10.83;;
6053;SDS011;3055;50.886;14.814;2024-01-15T07:45:00;12.57;;;9.30;;
6053;SDS011;3055;50.886;14.814;2024-01-15T07:47:27;15.67;;;10.57;;
6053;SDS011;3055;50.886;14.814;2024-01-15T07:49:56;15.03;;;9.70;;
6053;SDS011;3055;50.886;14.814;2024-01-15T07:52:23;16.47;;;9.17;;
6053;SDS011;3055;50.886;14.814;2024-01-15T07:54:50;14.87;;;8.50;;
6053;SDS011;3055;50.886;14.814;2024-01-15T07:57:17;14.90;;;9.13;;
6053;SDS011;3055;50.886;14.814;2024-01-15T07:59:44;14.00;;;9.53;;
6053;SDS011;3055;50.886;14.814;2024-01-15T08:02:11;14.00;;;10.23;;
6053;SDS011;3055;50.886;14.814;2024-01-15T08:04:38;16.47;;;9.13;;
6053;SDS011;3055;50.886;14.814;2024-01-15T08:07:07;13.63;;;9.17;;
6053;SDS011;3055;50.886;14.814;2024-01-15T08:09:34;14.70;;;8.73;;
6053;SDS011;3055;50.886;14.814;2024-01-15T08:12:01;14.07;;;9.53;;
6053;SDS011;3055;50.886;14.814;2024-01-15T08:14:31;15.13;;;8.70;;
6053;SDS011;3055;50.886;14.814;2024-01-15T08:16:58;15.67;;;9.67;;
6053;SDS011;3055;50.886;14.814;2024-01-15T08:19:26;14.30;;;9.07;;
6053;SDS011;3055;50.886;14.814;2024-01-15T08:21:53;15.07;;;8.73;;
6053;SDS011;3055;50.886;14.814;2024-01-15T08:24:21;14.73;;;9.20;;
6053;SDS011;3055;50.886;14.814;2024-01-15T08:26:48;14.90;;;10.30;;
6053;SDS011;3055;50.886;14.814;2024-01-15T08:29:15;14.23;;;9.33;;
6053;SDS011;3055;50.886;14.814;2024-01-15T08:31:44;16.87;;;10.77;;
6053;SDS011;3055;50.886;14.814;2024-01-15T08:34:11;15.50;;;10.83;;
6053;SDS011;3055;50.886;14.814;2024-01-15T08:36:38;16.33;;;10.23;;
6053;SDS011;3055;50.886;14.814;2024-01-15T08:39:05;17.93;;;10.07;;
6053;SDS011;3055;50.886;14.814;2024-01-15T08:41:35;15.40;;;10.00;;
6053;SDS011;3055;50.886;14.814;2024-01-15T08:44:02;16.17;;;9.90;;
6053;SDS011;3055;50.886;14.814;2024-01-15T08:46:30;16.67;;;10.00;;
6053;SDS011;3055;50.886;14.814;2024-01-15T08:48:57;15.37;;;10.40;;
6053;SDS011;3055;50.886;14.814;2024-01-15T08:51:24;16.43;;;9.57;;
6053;SDS011;3055;50.886;14.814;2024-01-15T08:53:51;16.03;;;9.20;;
6053;SDS011;3055;50.886;14.814;2024-01-15T08:56:18;16.77;;;10.00;;
6053;SDS011;3055;50.886;14.814;2024-01-15T08:58:46;13.47;;;9.47;;
6053;SDS011;3055;50.886;14.814;2024-01-15T09:01:13;13.67;;;8.60;;
6053;SDS011;3055;50.886;14.814;2024-01-15T09:03:40;13.07;;;8.90;;
6053;SDS011;3055;50.886;14.814;2024-01-15T09:06:08;11.20;;;8.27;;
6053;SDS011;3055;50.886;14.814;2024-01-15T09:08:35;11.97;;;8.23;;
6053;SDS011;3055;50.886;14.814;2024-01-15T09:11:02;13.67;;;8.10;;
6053;SDS011;3055;50.886;14.814;2024-01-15T09:13:30;12.57;;;8.97;;
6053;SDS011;3055;50.886;14.814;2024-01-15T09:15:58;13.80;;;9.23;;
6053;SDS011;3055;50.886;14.814;2024-01-15T09:18:26;15.27;;;9.70;;
6053;SDS011;3055;50.886;14.814;2024-01-15T09:20:53;11.53;;;8.50;;
6053;SDS011;3055;50.886;14.814;2024-01-15T09:23:20;14.00;;;9.10;;
6053;SDS011;3055;50.886;14.814;2024-01-15T09:25:47;12.83;;;8.40;;
6053;SDS011;3055;50.886;14.814;2024-01-15T09:28:14;8.97;;;7.33;;
6053;SDS011;3055;50.886;14.814;2024-01-15T09:30:42;11.87;;;8.17;;
6053;SDS011;3055;50.886;14.814;2024-01-15T09:33:11;13.60;;;8.53;;
6053;SDS011;3055;50.886;14.814;2024-01-15T09:35:38;13.83;;;8.03;;
6053;SDS011;3055;50.886;14.814;2024-01-15T09:38:05;14.47;;;9.00;;
6053;SDS011;3055;50.886;14.814;2024-01-15T09:40:32;12.23;;;7.90;;
6053;SDS011;3055;50.886;14.814;2024-01-15T09:43:00;12.43;;;7.90;;
6053;SDS011;3055;50.886;14.814;2024-01-15T09:45:28;12.50;;;8.37;;
6053;SDS011;3055;50.886;14.814;2024-01-15T09:47:56;12.33;;;8.60;;
6053;SDS011;3055;50.886;14.814;2024-01-15T09:50:24;11.53;;;7.40;;
6053;SDS011;3055;50.886;14.814;2024-01-15T09:52:51;14.37;;;8.57;;
6053;SDS011;3055;50.886;14.814;2024-01-15T09:55:19;9.57;;;7.57;;
6053;SDS011;3055;50.886;14.814;2024-01-15T09:57:46;13.77;;;7.73;;
6053;SDS011;3055;50.886;14.814;2024-01-15T10:00:14;12.10;;;8.23;;
6053;SDS011;3055;50.886;14.814;2024-01-15T10:02:44;12.17;;;7.80;;
6053;SDS011;3055;50.886;14.814;2024-01-15T10:05:12;12.30;;;7.67;;
6053;SDS011;3055;50.886;14.814;2024-01-15T10:07:40;9.93;;;7.03;;
6053;SDS011;3055;50.886;14.814;2024-01-15T10:10:08;12.53;;;8.13;;
6053;SDS011;3055;50.886;14.814;2024-01-15T10:12:37;14.97;;;8.60;;
6053;SDS011;3055;50.886;14.814;2024-01-15T10:15:05;12.57;;;8.07;;
6053;SDS011;3055;50.886;14.814;2024-01-15T10:17:36;13.87;;;8.20;;
6053;SDS011;3055;50.886;14.814;2024-01-15T10:20:07;13.47;;;7.67;;
6053;SDS011;3055;50.886;14.814;2024-01-15T10:22:35;10.40;;;7.17;;
6053;SDS011;3055;50.886;14.814;2024-01-15T10:25:07;15.47;;;9.43;;
6053;SDS011;3055;50.886;14.814;2024-01-15T10:27:36;13.87;;;8.50;;
6053;SDS011;3055;50.886;14.814;2024-01-15T10:30:04;13.77;;;8.40;;
6053;SDS011;3055;50.886;14.814;2024-01-15T10:32:32;12.63;;;7.33;;
6053;SDS011;3055;50.886;14.814;2024-01-15T10:34:59;11.43;;;6.97;;
6053;SDS011;3055;50.886;14.814;2024-01-15T10:37:26;10.33;;;7.57;;
6053;SDS011;3055;50.886;14.814;2024-01-15T10:39:53;11.83;;;7.63;;
6053;SDS011;3055;50.886;14.814;2024-01-15T10:42:22;12.33;;;8.03;;
6053;SDS011;3055;50.886;14.814;2024-01-15T10:44:49;12.97;;;8.10;;
6053;SDS011;3055;50.886;14.814;2024-01-15T10:47:16;10.57;;;7.37;;
6053;SDS011;3055;50.886;14.814;2024-01-15T10:49:44;11.03;;;7.10;;
6053;SDS011;3055;50.886;14.814;2024-01-15T10:52:12;11.33;;;7.67;;
6053;SDS011;3055;50.886;14.814;2024-01-15T10:54:40;9.33;;;7.03;;
6053;SDS011;3055;50.886;14.814;2024-01-15T10:57:09;11.00;;;6.93;;
6053;SDS011;3055;50.886;14.814;2024-01-15T10:59:39;10.20;;;7.43;;
6053;SDS011;3055;50.886;14.814;2024-01-15T11:02:06;9.17;;;6.37;;
6053;SDS011;3055;50.886;14.814;2024-01-15T11:04:35;7.67;;;6.23;;
6053;SDS011;3055;50.886;14.814;2024-01-15T11:07:03;10.13;;;6.60;;
6053;SDS011;3055;50.886;14.814;2024-01-15T11:09:32;8.30;;;5.87;;
6053;SDS011;3055;50.886;14.814;2024-01-15T11:12:09;11.00;;;7.10;;
6053;SDS011;3055;50.886;14.814;2024-01-15T11:14:42;7.40;;;5.47;;
6053;SDS011;3055;50.886;14.814;2024-01-15T11:17:12;8.00;;;5.67;;
6053;SDS011;3055;50.886;14.814;2024-01-15T11:19:42;6.37;;;4.67;;
6053;SDS011;3055;50.886;14.814;2024-01-15T11:22:38;6.17;;;5.40;;
6053;SDS011;3055;50.886;14.814;2024-01-15T11:25:17;7.50;;;5.13;;
6053;SDS011;3055;50.886;14.814;2024-01-15T11:27:45;6.60;;;5.03;;
6053;SDS011;3055;50.886;14.814;2024-01-15T11:30:17;7.17;;;4.77;;
6053;SDS011;3055;50.886;14.814;2024-01-15T11:32:45;8.77;;;5.03;;
6053;SDS011;3055;50.886;14.814;2024-01-15T11:35:13;6.47;;;5.20;;
6053;SDS011;3055;50.886;14.814;2024-01-15T11:37:56;7.80;;;5.17;;
6053;SDS011;3055;50.886;14.814;2024-01-15T11:40:37;7.83;;;4.70;;
6053;SDS011;3055;50.886;14.814;2024-01-15T11:43:05;7.57;;;4.87;;
6053;SDS011;3055;50.886;14.814;2024-01-15T11:45:35;8.43;;;5.03;;
6053;SDS011;3055;50.886;14.814;2024-01-15T11:48:10;5.70;;;4.17;;
6053;SDS011;3055;50.886;14.814;2024-01-15T11:50:40;6.63;;;4.93;;
6053;SDS011;3055;50.886;14.814;2024-01-15T11:53:13;6.67;;;4.67;;
6053;SDS011;3055;50.886;14.814;2024-01-15T11:55:47;8.37;;;4.90;;
6053;SDS011;3055;50.886;14.814;2024-01-15T11:58:18;4.93;;;4.30;;
6053;SDS011;3055;50.886;14.814;2024-01-15T12:00:47;4.63;;;4.20;;
6053;SDS011;3055;50.886;14.814;2024-01-15T12:03:16;5.40;;;4.17;;
6053;SDS011;3055;50.886;14.814;2024-01-15T12:05:43;5.30;;;4.73;;
6053;SDS011;3055;50.886;14.814;2024-01-15T12:08:11;4.57;;;4.17;;
6053;SDS011;3055;50.886;14.814;2024-01-15T12:10:38;5.17;;;4.10;;
6053;SDS011;3055;50.886;14.814;2024-01-15T12:13:09;4.47;;;3.87;;
6053;SDS011;3055;50.886;14.814;2024-01-15T12:15:38;5.87;;;4.40;;
6053;SDS011;3055;50.886;14.814;2024-01-15T12:18:08;4.87;;;4.27;;
6053;SDS011;3055;50.886;14.814;2024-01-15T12:20:36;5.73;;;4.37;;
6053;SDS011;3055;50.886;14.814;2024-01-15T12:23:04;5.97;;;3.90;;
6053;SDS011;3055;50.886;14.814;2024-01-15T12:25:31;5.07;;;4.37;;
6053;SDS011;3055;50.886;14.814;2024-01-15T12:27:59;5.43;;;4.17;;
6053;SDS011;3055;50.886;14.814;2024-01-15T12:30:27;4.50;;;3.80;;
6053;SDS011;3055;50.886;14.814;2024-01-15T12:32:56;4.40;;;3.87;;
6053;SDS011;3055;50.886;14.814;2024-01-15T12:35:25;3.47;;;3.17;;
6053;SDS011;3055;50.886;14.814;2024-01-15T12:37:52;7.20;;;4.70;;
6053;SDS011;3055;50.886;14.814;2024-01-15T12:40:21;5.23;;;3.90;;
6053;SDS011;3055;50.886;14.814;2024-01-15T12:42:49;4.30;;;3.90;;
6053;SDS011;3055;50.886;14.814;2024-01-15T12:45:16;5.27;;;3.83;;
6053;SDS011;3055;50.886;14.814;2024-01-15T12:47:44;6.77;;;3.87;;
6053;SDS011;3055;50.886;14.814;2024-01-15T12:50:12;5.37;;;3.63;;
6053;SDS011;3055;50.886;14.814;2024-01-15T12:52:41;5.07;;;4.17;;
6053;SDS011;3055;50.886;14.814;2024-01-15T12:55:09;7.50;;;3.47;;
6053;SDS011;3055;50.886;14.814;2024-01-15T12:57:37;6.97;;;5.37;;
6053;SDS011;3055;50.886;14.814;2024-01-15T13:00:05;4.23;;;3.00;;
6053;SDS011;3055;50.886;14.814;2024-01-15T13:02:37;3.53;;;3.20;;
6053;SDS011;3055;50.886;14.814;2024-01-15T13:05:05;5.53;;;3.90;;
6053;SDS011;3055;50.886;14.814;2024-01-15T13:07:33;4.43;;;3.53;;
6053;SDS011;3055;50.886;14.814;2024-01-15T13:10:02;4.60;;;3.40;;
6053;SDS011;3055;50.886;14.814;2024-01-15T13:12:29;4.80;;;3.50;;
6053;SDS011;3055;50.886;14.814;2024-01-15T13:14:57;6.80;;;4.07;;
6053;SDS011;3055;50.886;14.814;2024-01-15T13:17:25;6.23;;;3.83;;
6053;SDS011;3055;50.886;14.814;2024-01-15T13:19:52;7.10;;;3.83;;
6053;SDS011;3055;50.886;14.814;2024-01-15T13:22:19;4.53;;;3.63;;
6053;SDS011;3055;50.886;14.814;2024-01-15T13:24:46;4.47;;;3.40;;
6053;SDS011;3055;50.886;14.814;2024-01-15T13:27:14;4.70;;;3.60;;
6053;SDS011;3055;50.886;14.814;2024-01-15T13:29:42;4.90;;;3.60;;
6053;SDS011;3055;50.886;14.814;2024-01-15T13:32:09;7.40;;;3.43;;
6053;SDS011;3055;50.886;14.814;2024-01-15T13:34:43;4.13;;;3.57;;
6053;SDS011;3055;50.886;14.814;2024-01-15T13:37:10;4.77;;;3.20;;
6053;SDS011;3055;50.886;14.814;2024-01-15T13:39:37;4.13;;;3.37;;
6053;SDS011;3055;50.886;14.814;2024-01-15T13:42:04;4.50;;;3.50;;
6053;SDS011;3055;50.886;14.814;2024-01-15T13:44:32;4.37;;;3.40;;
6053;SDS011;3055;50.886;14.814;2024-01-15T13:46:59;4.63;;;3.43;;
6053;SDS011;3055;50.886;14.814;2024-01-15T13:49:26;3.93;;;3.33;;
6053;SDS011;3055;50.886;14.814;2024-01-15T13:51:53;4.53;;;3.27;;
6053;SDS011;3055;50.886;14.814;2024-01-15T13:54:20;4.23;;;3.60;;
6053;SDS011;3055;50.886;14.814;2024-01-15T13:56:48;4.53;;;3.43;;
6053;SDS011;3055;50.886;14.814;2024-01-15T13:59:15;5.57;;;3.60;;
6053;SDS011;3055;50.886;14.814;2024-01-15T14:01:43;4.33;;;3.93;;
6053;SDS011;3055;50.886;14.814;2024-01-15T14:04:11;4.27;;;3.83;;
6053;SDS011;3055;50.886;14.814;2024-01-15T14:06:38;3.37;;;3.07;;
6053;SDS011;3055;50.886;14.814;2024-01-15T14:09:05;5.67;;;3.47;;
6053;SDS011;3055;50.886;14.814;2024-01-15T14:11:35;5.07;;;3.40;;
6053;SDS011;3055;50.886;14.814;2024-01-15T14:14:03;8.20;;;3.77;;
6053;SDS011;3055;50.886;14.814;2024-01-15T14:16:30;4.87;;;3.53;;
6053;SDS011;3055;50.886;14.814;2024-01-15T14:18:58;4.73;;;3.03;;
6053;SDS011;3055;50.886;14.814;2024-01-15T14:21:27;3.73;;;3.30;;
6053;SDS011;3055;50.886;14.814;2024-01-15T14:23:54;10.03;;;3.60;;
6053;SDS011;3055;50.886;14.814;2024-01-15T14:26:21;4.53;;;3.63;;
6053;SDS011;3055;50.886;14.814;2024-01-15T14:28:48;3.17;;;2.83;;
6053;SDS011;3055;50.886;14.814;2024-01-15T14:31:15;3.47;;;3.17;;
6053;SDS011;3055;50.886;14.814;2024-01-15T14:33:42;3.70;;;3.00;;
6053;SDS011;3055;50.886;14.814;2024-01-15T14:36:11;3.80;;;3.50;;
6053;SDS011;3055;50.886;14.814;2024-01-15T14:38:38;4.00;;;3.50;;
6053;SDS011;3055;50.886;14.814;2024-01-15T14:41:05;4.60;;;3.40;;
6053;SDS011;3055;50.886;14.814;2024-01-15T14:43:32;4.57;;;3.33;;
6053;SDS011;3055;50.886;14.814;2024-01-15T14:45:59;4.47;;;4.07;;
6053;SDS011;3055;50.886;14.814;2024-01-15T14:48:26;5.70;;;4.30;;
6053;SDS011;3055;50.886;14.814;2024-01-15T14:50:54;3.17;;;2.87;;
6053;SDS011;3055;50.886;14.814;2024-01-15T14:53:23;4.93;;;4.43;;